Time;durP1;ratioP1;P1;durP2;ratioP2;P2;SDS_P1;SDS_P2;PMS_P1;PMS_P2;Temp;Humidity;BMP_temperature;BMP_pressure;BME280_temperature;BME280_humidity;BME280_pressure;Samples;Min_cycle;Max_cycle;Signal;HPM_P1;HPM_P2
2023/11/11 00:01:44;;;;;;;3.67;2.00;;;;;;;4.67;100.00;95749.81;5024277;28;20397;-81
2023/11/11 00:04:11;;;;;;;6.00;2.00;;;;;;;4.66;100.00;95743.03;5024729;28;20423;-79
2023/11/11 00:06:38;;;;;;;4.72;1.80;;;;;;;4.65;100.00;95738.81;5024052;28;20392;-80
2023/11/11 00:09:04;;;;;;;3.78;1.75;;;;;;;4.63;100.00;95740.91;5024194;28;20404;-80
2023/11/11 00:11:30;;;;;;;4.68;1.88;;;;;;;4.59;100.00;95734.56;5023570;28;20393;-81
2023/11/11 00:13:57;;;;;;;2.85;1.70;;;;;;;4.61;100.00;95735.91;5024564;28;20484;-81
2023/11/11 00:16:23;;;;;;;2.20;1.80;;;;;;;4.63;100.00;95733.03;5010237;28;20932;-80
2023/11/11 00:18:49;;;;;;;4.25;2.08;;;;;;;4.61;100.00;95732.50;5024974;28;20735;-80
2023/11/11 00:21:17;;;;;;;2.70;1.95;;;;;;;4.62;100.00;95736.72;5023867;28;20448;-80
2023/11/11 00:23:43;;;;;;;2.97;1.90;;;;;;;4.64;100.00;95737.25;5024042;28;20462;-80
2023/11/11 00:26:09;;;;;;;2.93;1.90;;;;;;;4.66;100.00;95733.31;5024104;28;20405;-79
2023/11/11 00:28:40;;;;;;;5.63;2.47;;;;;;;4.64;100.00;95730.19;5024102;28;20464;-80
2023/11/11 00:31:09;;;;;;;5.45;2.40;;;;;;;4.63;100.00;95744.31;5024875;28;20453;-80
2023/11/11 00:33:37;;;;;;;9.27;2.33;;;;;;;4.67;100.00;95736.72;5024166;28;20438;-80
2023/11/11 00:36:05;;;;;;;5.33;2.20;;;;;;;4.67;100.00;95744.59;5023856;28;20397;-81
2023/11/11 00:38:34;;;;;;;2.85;2.20;;;;;;;4.72;100.00;95749.09;5024073;28;20424;-81
2023/11/11 00:41:00;;;;;;;4.63;1.90;;;;;;;4.74;100.00;95755.63;5025308;28;20477;-80
2023/11/11 00:43:26;;;;;;;2.20;1.70;;;;;;;4.77;100.00;95742.03;5025250;28;20868;-82
2023/11/11 00:45:53;;;;;;;2.22;1.75;;;;;;;4.81;100.00;95750.19;5042005;28;20901;-80
2023/11/11 00:48:20;;;;;;;2.25;1.80;;;;;;;4.83;100.00;95755.94;5024367;28;20411;-80
2023/11/11 00:50:47;;;;;;;1.88;1.75;;;;;;;4.86;100.00;95752.81;5041403;28;20445;-81
2023/11/11 00:53:14;;;;;;;2.10;1.80;;;;;;;4.87;100.00;95759.66;5042185;28;20474;-81
2023/11/11 00:55:42;;;;;;;2.85;1.70;;;;;;;4.88;100.00;95763.84;5042085;28;20402;-80
2023/11/11 00:58:08;;;;;;;4.20;1.97;;;;;;;4.86;100.00;95771.19;5041846;28;20806;-81
2023/11/11 01:00:35;;;;;;;2.25;1.90;;;;;;;4.86;100.00;95773.81;5040978;28;20911;-80
2023/11/11 01:03:01;;;;;;;6.05;2.30;;;;;;;4.82;100.00;95770.09;5041195;28;20454;-81
2023/11/11 01:05:27;;;;;;;3.20;2.00;;;;;;;4.83;100.00;95782.94;5044599;28;20937;-82
2023/11/11 01:07:53;;;;;;;3.13;2.07;;;;;;;4.86;100.00;95781.66;5041876;28;20407;-80
2023/11/11 01:10:22;;;;;;;2.45;2.08;;;;;;;4.87;100.00;95781.41;5041669;28;20888;-81
2023/11/11 01:12:51;;;;;;;2.38;2.10;;;;;;;4.86;100.00;95781.66;5041420;28;20399;-79
2023/11/11 01:15:17;;;;;;;4.33;1.97;;;;;;;4.89;100.00;95786.38;5040052;28;20429;-80
2023/11/11 01:17:43;;;;;;;1.80;1.70;;;;;;;4.91;100.00;95789.53;5039658;28;20402;-80
2023/11/11 01:20:12;;;;;;;1.80;1.70;;;;;;;4.92;100.00;95784.06;5039166;28;20425;-79
2023/11/11 01:22:38;;;;;;;2.42;1.80;;;;;;;4.94;100.00;95783.81;5040054;28;20419;-79
2023/11/11 01:25:05;;;;;;;4.13;2.08;;;;;;;4.92;100.00;95810.28;5040482;28;20395;-80
2023/11/11 01:27:32;;;;;;;2.00;1.80;;;;;;;4.93;100.00;95806.63;5039714;28;20399;-81
2023/11/11 01:30:00;;;;;;;1.92;1.67;;;;;;;4.91;100.00;95810.53;5039892;28;20395;-81
2023/11/11 01:32:26;;;;;;;1.83;1.65;;;;;;;4.93;100.00;95806.63;5039560;28;20455;-80
2023/11/11 01:34:52;;;;;;;1.97;1.60;;;;;;;4.93;100.00;95809.22;5022048;28;20400;-81
2023/11/11 01:37:19;;;;;;;2.05;1.70;;;;;;;4.95;100.00;95801.13;5038455;28;20391;-80
2023/11/11 01:39:45;;;;;;;2.03;1.60;;;;;;;4.93;100.00;95805.81;5041886;28;20402;-82
2023/11/11 01:42:15;;;;;;;2.13;1.50;;;;;;;4.91;100.00;95824.41;5041456;28;20426;-81
2023/11/11 01:44:41;;;;;;;1.75;1.50;;;;;;;4.91;100.00;95821.00;5028867;28;20491;-80
2023/11/11 01:47:09;;;;;;;1.65;1.50;;;;;;;4.91;100.00;95829.66;5021101;28;20400;-80
2023/11/11 01:49:36;;;;;;;1.70;1.60;;;;;;;4.91;100.00;95824.41;5022565;28;20457;-80
2023/11/11 01:52:03;;;;;;;2.75;1.80;;;;;;;4.92;100.00;95840.94;5022522;28;20425;-79
2023/11/11 01:54:30;;;;;;;2.70;1.60;;;;;;;4.94;100.00;95831.78;5019728;28;20437;-79
2023/11/11 01:56:57;;;;;;;1.60;1.50;;;;;;;4.89;100.00;95836.97;5020182;28;20428;-80
2023/11/11 01:59:25;;;;;;;2.70;1.73;;;;;;;4.93;100.00;95834.66;5020290;28;20405;-79
2023/11/11 02:01:52;;;;;;;1.63;1.52;;;;;;;4.91;100.00;95847.22;5020792;28;20393;-81
2023/11/11 02:04:20;;;;;;;1.65;1.55;;;;;;;4.95;100.00;95856.19;5022105;28;20400;-80
2023/11/11 02:06:49;;;;;;;2.22;1.85;;;;;;;4.93;100.00;95863.50;5021770;28;20537;-80
2023/11/11 02:09:17;;;;;;;2.10;1.60;;;;;;;4.95;100.00;95856.19;5020947;28;20404;-82
2023/11/11 02:11:47;;;;;;;1.93;1.60;;;;;;;4.98;100.00;95876.63;5021490;28;20431;-81
2023/11/11 02:14:14;;;;;;;1.80;1.40;;;;;;;5.00;100.00;95861.44;5021276;28;20438;-80
2023/11/11 02:16:40;;;;;;;2.58;1.60;;;;;;;4.94;100.00;95863.25;5022437;28;20753;-81
2023/11/11 02:19:07;;;;;;;1.60;1.40;;;;;;;4.93;100.00;95856.44;5020793;28;20408;-80
2023/11/11 02:21:35;;;;;;;3.30;1.55;;;;;;;4.97;100.00;95881.09;5021686;28;20819;-81
2023/11/11 02:24:04;;;;;;;1.85;1.45;;;;;;;4.95;100.00;95883.19;5021032;28;20420;-80
2023/11/11 02:26:30;;;;;;;1.50;1.40;;;;;;;4.89;100.00;95883.38;5022194;28;20441;-81
2023/11/11 02:28:56;;;;;;;2.90;1.20;;;;;;;4.88;100.00;95880.00;5023870;28;20400;-80
2023/11/11 02:31:23;;;;;;;2.08;1.50;;;;;;;4.88;100.00;95897.56;5024809;28;20396;-81
2023/11/11 02:33:49;;;;;;;2.55;1.30;;;;;;;4.80;100.00;95875.22;5029755;28;20415;-82
2023/11/11 02:36:15;;;;;;;1.40;1.30;;;;;;;4.76;100.00;95887.22;5039717;28;20407;-83
2023/11/11 02:38:42;;;;;;;1.60;1.20;;;;;;;4.72;100.00;95911.59;5038310;28;20414;-80
2023/11/11 02:41:10;;;;;;;3.50;1.33;;;;;;;4.65;100.00;95893.44;4986772;28;20408;-82
2023/11/11 02:43:36;;;;;;;3.08;1.30;;;;;;;4.59;100.00;95892.59;5020270;28;20515;-81
2023/11/11 02:46:03;;;;;;;1.50;1.40;;;;;;;4.51;100.00;95890.44;5021860;28;20404;-81
2023/11/11 02:48:29;;;;;;;1.43;1.33;;;;;;;4.45;100.00;95890.63;5021249;28;20412;-80
2023/11/11 02:50:55;;;;;;;1.95;1.30;;;;;;;4.41;100.00;95887.75;5022706;28;20435;-81
2023/11/11 02:53:21;;;;;;;3.60;1.35;;;;;;;4.42;100.00;95897.19;5021475;28;20412;-80
2023/11/11 02:55:48;;;;;;;2.60;1.30;;;;;;;4.38;100.00;95900.53;5021873;28;20401;-82
2023/11/11 02:58:16;;;;;;;2.20;1.50;;;;;;;4.37;100.00;95914.66;5021667;28;20761;-81
2023/11/11 03:00:43;;;;;;;2.63;1.90;;;;;;;4.35;100.00;95907.06;5022567;28;20445;-81
2023/11/11 03:03:09;;;;;;;2.90;1.90;;;;;;;4.36;100.00;95918.34;5022469;28;20909;-81
2023/11/11 03:05:36;;;;;;;2.08;1.70;;;;;;;4.38;100.00;95927.50;5023872;28;20459;-81
2023/11/11 03:08:02;;;;;;;2.28;2.00;;;;;;;4.39;100.00;95926.47;5024130;28;20408;-81
2023/11/11 03:10:28;;;;;;;3.00;2.35;;;;;;;4.43;100.00;95924.16;5024148;28;20438;-81
2023/11/11 03:12:55;;;;;;;3.58;2.10;;;;;;;4.45;100.00;95935.16;5023643;28;20412;-79
2023/11/11 03:15:24;;;;;;;2.85;2.38;;;;;;;4.47;100.00;95940.97;5023652;28;20788;-80
2023/11/11 03:17:50;;;;;;;4.47;2.50;;;;;;;4.49;100.00;95949.38;5022828;28;20436;-82
2023/11/11 03:20:16;;;;;;;4.72;2.58;;;;;;;4.53;100.00;95947.81;5024131;28;20432;-81
2023/11/11 03:22:43;;;;;;;2.67;2.40;;;;;;;4.57;100.00;95951.56;5025290;28;20452;-81
2023/11/11 03:25:11;;;;;;;3.88;2.28;;;;;;;4.60;100.00;95957.06;5024867;28;20404;-82
2023/11/11 03:27:37;;;;;;;2.67;2.47;;;;;;;4.65;100.00;95951.91;5025906;28;20488;-82
2023/11/11 03:30:04;;;;;;;3.40;2.40;;;;;;;4.68;100.00;95961.88;5025536;28;20412;-81
2023/11/11 03:32:31;;;;;;;5.32;2.60;;;;;;;4.70;100.00;95958.22;5027718;28;20968;-80
2023/11/11 03:34:58;;;;;;;3.20;2.50;;;;;;;4.74;100.00;95967.94;5021237;28;20405;-82
2023/11/11 03:37:25;;;;;;;5.05;2.20;;;;;;;4.77;100.00;95962.22;5023930;28;20389;-82
2023/11/11 03:39:53;;;;;;;3.17;2.40;;;;;;;4.77;100.00;95979.75;5028218;28;20406;-81
2023/11/11 03:42:21;;;;;;;4.80;2.33;;;;;;;4.77;100.00;95998.91;5039237;28;20429;-84
2023/11/11 03:44:47;;;;;;;4.38;2.60;;;;;;;4.78;100.00;95979.53;5039725;28;20403;-82
2023/11/11 03:47:13;;;;;;;3.27;2.40;;;;;;;4.78;100.00;95989.22;5038475;28;20854;-82
2023/11/11 03:49:41;;;;;;;4.95;2.50;;;;;;;4.78;100.00;95983.97;5036123;28;20857;-82
2023/11/11 03:52:09;;;;;;;3.42;2.40;;;;;;;4.77;100.00;95985.81;5038094;28;20437;-83
2023/11/11 03:54:35;;;;;;;3.80;2.45;;;;;;;4.74;100.00;96004.63;5025490;28;20492;-81
2023/11/11 03:57:01;;;;;;;4.57;2.50;;;;;;;4.68;100.00;95997.75;5025131;28;20401;-83
2023/11/11 03:59:27;;;;;;;3.50;2.80;;;;;;;4.61;100.00;96010.28;5023970;28;20392;-82
2023/11/11 04:01:54;;;;;;;3.05;2.45;;;;;;;4.59;100.00;96018.38;5027938;28;20422;-82
2023/11/11 04:04:20;;;;;;;4.35;2.55;;;;;;;4.54;100.00;96020.97;5023279;28;20392;-84
2023/11/11 04:06:47;;;;;;;4.18;2.53;;;;;;;4.58;100.00;96029.13;5026414;28;20405;-82
2023/11/11 04:09:13;;;;;;;4.63;2.60;;;;;;;4.57;100.00;96038.81;5027474;28;20404;-82
2023/11/11 04:11:40;;;;;;;4.38;2.78;;;;;;;4.56;100.00;96034.59;5029837;28;20420;-84
2023/11/11 04:14:06;;;;;;;2.63;2.42;;;;;;;4.57;100.00;96046.69;5026652;28;20405;-83
2023/11/11 04:16:32;;;;;;;3.70;2.60;;;;;;;4.61;100.00;96062.69;5030193;28;20407;-82
2023/11/11 04:18:59;;;;;;;8.13;2.90;;;;;;;4.60;100.00;96067.13;5026668;28;20464;-82
2023/11/11 04:21:25;;;;;;;3.67;2.80;;;;;;;4.56;100.00;96081.00;5035861;28;20395;-83
2023/11/11 04:23:52;;;;;;;5.03;2.70;;;;;;;4.55;100.00;96082.03;5030007;28;20463;-82
2023/11/11 04:26:18;;;;;;;5.60;2.47;;;;;;;4.55;100.00;96084.63;5032787;28;20443;-83
2023/11/11 04:28:45;;;;;;;5.40;2.73;;;;;;;4.52;100.00;96093.78;5033889;28;20402;-82
2023/11/11 04:31:12;;;;;;;3.80;2.65;;;;;;;4.52;100.00;96103.47;5034919;28;20419;-82
2023/11/11 04:33:39;;;;;;;3.10;2.67;;;;;;;4.51;100.00;96107.91;5029003;28;20446;-83
2023/11/11 04:36:05;;;;;;;4.45;3.08;;;;;;;4.51;100.00;96115.00;5032452;28;20405;-82
2023/11/11 04:38:31;;;;;;;6.97;3.80;;;;;;;4.49;100.00;96112.63;5034968;28;20878;-84
2023/11/11 04:40:59;;;;;;;4.68;3.25;;;;;;;4.47;100.00;96112.06;5034009;28;20407;-83
2023/11/11 04:43:27;;;;;;;4.50;3.40;;;;;;;4.46;100.00;96105.22;5033980;28;20422;-80
2023/11/11 04:45:53;;;;;;;5.20;3.38;;;;;;;4.47;100.00;96117.31;5021866;28;20438;-83
2023/11/11 04:48:19;;;;;;;6.47;3.90;;;;;;;4.48;100.00;96131.19;5023471;28;20432;-82
2023/11/11 04:50:46;;;;;;;6.77;4.03;;;;;;;4.48;100.00;96139.84;5022886;28;20730;-83
2023/11/11 04:53:12;;;;;;;10.93;4.50;;;;;;;4.47;100.00;96140.09;5022561;28;20781;-84
2023/11/11 04:55:38;;;;;;;9.75;4.57;;;;;;;4.45;100.00;96148.19;5021782;28;20405;-83
2023/11/11 04:58:07;;;;;;;10.27;5.20;;;;;;;4.45;100.00;96139.53;5021250;28;20892;-84
2023/11/11 05:00:33;;;;;;;8.25;4.65;;;;;;;4.46;100.00;96154.22;5029025;28;20409;-86
2023/11/11 05:03:00;;;;;;;9.80;5.00;;;;;;;4.45;100.00;96169.16;5029966;28;20423;-85
2023/11/11 05:05:27;;;;;;;11.80;5.43;;;;;;;4.46;100.00;96172.56;5045374;28;20875;-85
2023/11/11 05:07:53;;;;;;;7.90;4.80;;;;;;;4.45;100.00;96174.38;5044437;28;20399;-85
2023/11/11 05:10:20;;;;;;;7.97;4.72;;;;;;;4.46;100.00;96175.97;5045393;28;20399;-85
2023/11/11 05:12:51;;;;;;;12.60;5.68;;;;;;;4.47;100.00;96182.00;5023107;28;20537;-83
2023/11/11 05:15:23;;;;;;;9.77;5.27;;;;;;;4.46;100.00;96177.78;5029889;28;20409;-82
2023/11/11 05:17:49;;;;;;;8.30;5.28;;;;;;;4.43;100.00;96197.44;5033844;28;20490;-80
2023/11/11 05:20:17;;;;;;;9.85;5.57;;;;;;;4.39;100.00;96196.31;5025932;28;20396;-81
2023/11/11 05:22:43;;;;;;;8.98;5.60;;;;;;;4.37;100.00;96181.84;5026795;28;20454;-81
2023/11/11 05:25:10;;;;;;;8.77;5.57;;;;;;;4.34;100.00;96205.94;5016761;28;20519;-80
2023/11/11 05:27:36;;;;;;;10.82;6.03;;;;;;;4.32;100.00;96202.75;5017752;28;20439;-81
2023/11/11 05:30:04;;;;;;;10.88;6.32;;;;;;;4.31;100.00;96209.03;5017416;28;20389;-81
2023/11/11 05:32:32;;;;;;;10.25;6.60;;;;;;;4.26;100.00;96220.22;5017375;28;20446;-81
2023/11/11 05:34:59;;;;;;;11.00;6.40;;;;;;;4.22;100.00;96219.91;5036509;28;20885;-80
2023/11/11 05:37:25;;;;;;;13.90;6.50;;;;;;;4.17;100.00;96219.84;5038092;28;20933;-81
2023/11/11 05:39:51;;;;;;;10.13;6.35;;;;;;;4.13;100.00;96218.75;5037371;28;20452;-81
2023/11/11 05:42:17;;;;;;;14.63;7.00;;;;;;;4.12;100.00;96218.97;5037919;28;20395;-80
2023/11/11 05:44:44;;;;;;;12.17;6.83;;;;;;;4.12;100.00;96205.88;5037517;28;20431;-80
2023/11/11 05:47:11;;;;;;;15.00;7.73;;;;;;;4.05;100.00;96213.91;5038994;28;20395;-81
2023/11/11 05:49:44;;;;;;;12.80;6.50;;;;;;;4.00;100.00;96221.66;5037044;28;20767;-81
2023/11/11 05:52:10;;;;;;;14.57;7.30;;;;;;;3.93;100.00;96228.06;5036228;28;20940;-81
2023/11/11 05:54:37;;;;;;;12.67;7.40;;;;;;;3.90;100.00;96226.75;5037889;28;20399;-81
2023/11/11 05:57:03;;;;;;;13.52;7.40;;;;;;;3.89;100.00;96236.41;5028552;28;20404;-80
2023/11/11 05:59:29;;;;;;;14.50;7.78;;;;;;;3.87;100.00;96235.06;5018653;28;20400;-82
2023/11/11 06:01:55;;;;;;;14.20;8.07;;;;;;;3.86;100.00;96234.25;5019233;28;20396;-82
2023/11/11 06:04:22;;;;;;;15.20;7.63;;;;;;;3.88;100.00;96237.44;5037294;28;20514;-81
2023/11/11 06:06:51;;;;;;;13.38;7.60;;;;;;;3.92;100.00;96245.59;5041396;28;20900;-82
2023/11/11 06:09:22;;;;;;;16.00;8.15;;;;;;;3.93;100.00;96252.44;5042703;28;20444;-83
2023/11/11 06:11:49;;;;;;;12.50;7.03;;;;;;;3.98;100.00;96254.34;5042870;28;20440;-83
2023/11/11 06:14:18;;;;;;;11.93;7.10;;;;;;;4.02;100.00;96258.06;5043114;28;20422;-82
2023/11/11 06:16:45;;;;;;;14.10;6.72;;;;;;;4.05;100.00;96260.22;5042590;28;20932;-79
2023/11/11 06:19:12;;;;;;;11.60;6.70;;;;;;;4.09;100.00;96277.03;5040583;28;20445;-81
2023/11/11 06:21:38;;;;;;;8.93;6.80;;;;;;;4.11;100.00;96275.00;5042297;28;20391;-85
2023/11/11 06:24:08;;;;;;;15.55;8.18;;;;;;;4.12;100.00;96272.13;5041095;28;20508;-84
2023/11/11 06:26:36;;;;;;;13.15;7.13;;;;;;;4.12;100.00;96276.56;5038325;28;20454;-82
2023/11/11 06:29:03;;;;;;;10.45;6.50;;;;;;;4.12;100.00;96285.22;5041626;28;20472;-83
2023/11/11 06:31:32;;;;;;;14.10;7.82;;;;;;;4.11;100.00;96282.84;5035356;28;20404;-82
2023/11/11 06:33:58;;;;;;;14.75;7.45;;;;;;;4.07;100.00;96287.75;5043969;28;20860;-82
2023/11/11 06:36:24;;;;;;;13.77;7.50;;;;;;;4.09;100.00;96285.69;5048265;28;20403;-81
2023/11/11 06:38:51;;;;;;;12.80;7.13;;;;;;;4.11;100.00;96296.72;5041188;28;20391;-80
2023/11/11 06:41:20;;;;;;;13.43;7.20;;;;;;;4.13;100.00;96306.97;5035872;28;20475;-82
2023/11/11 06:43:46;;;;;;;15.77;7.53;;;;;;;4.14;100.00;96317.19;5031659;28;20418;-81
2023/11/11 06:46:13;;;;;;;11.02;6.20;;;;;;;4.22;100.00;96310.78;5035350;28;20399;-82
2023/11/11 06:48:39;;;;;;;8.63;6.00;;;;;;;4.23;100.00;96328.88;5039142;28;20409;-81
2023/11/11 06:51:05;;;;;;;10.57;5.82;;;;;;;4.26;100.00;96317.94;5032468;28;20403;-81
2023/11/11 06:53:31;;;;;;;11.75;6.00;;;;;;;4.29;100.00;96327.13;5032609;28;20490;-80
2023/11/11 06:55:57;;;;;;;8.80;5.70;;;;;;;4.32;100.00;96336.34;5033688;28;20898;-80
2023/11/11 06:58:25;;;;;;;10.50;6.03;;;;;;;4.30;100.00;96333.97;5032169;28;20426;-81
2023/11/11 07:00:51;;;;;;;9.07;5.57;;;;;;;4.32;100.00;96341.59;5028678;28;20430;-85
2023/11/11 07:03:18;;;;;;;7.38;5.00;;;;;;;4.34;100.00;96342.16;5031616;28;20553;-83
2023/11/11 07:05:44;;;;;;;7.85;4.78;;;;;;;4.37;100.00;96345.06;5029404;28;20408;-84
2023/11/11 07:08:10;;;;;;;8.07;4.40;;;;;;;4.34;100.00;96350.00;5030844;28;20456;-85
2023/11/11 07:10:37;;;;;;;6.60;3.85;;;;;;;4.41;100.00;96366.38;5024836;28;20437;-82
2023/11/11 07:13:04;;;;;;;5.10;3.67;;;;;;;4.40;100.00;96367.41;5026643;28;20415;-84
2023/11/11 07:15:36;;;;;;;5.60;3.53;;;;;;;4.42;100.00;96367.97;5024379;28;20399;-84
2023/11/11 07:18:07;;;;;;;6.18;3.50;;;;;;;4.46;100.00;96382.16;5025066;28;20449;-84
2023/11/11 07:20:33;;;;;;;6.25;3.40;;;;;;;4.37;100.00;96376.50;5034892;28;20479;-83
2023/11/11 07:22:59;;;;;;;4.73;3.00;;;;;;;4.41;100.00;96380.28;5046178;28;20522;-84
2023/11/11 07:25:26;;;;;;;5.15;2.85;;;;;;;4.42;100.00;96389.72;5040743;28;20402;-83
2023/11/11 07:27:52;;;;;;;5.07;3.08;;;;;;;4.43;100.00;96388.69;5027428;28;20397;-82
2023/11/11 07:30:18;;;;;;;4.68;2.97;;;;;;;4.47;100.00;96400.28;5020685;28;20408;-81
2023/11/11 07:32:46;;;;;;;5.63;2.88;;;;;;;4.48;100.00;96394.00;5021541;28;20401;-84
2023/11/11 07:35:12;;;;;;;3.00;2.70;;;;;;;4.50;100.00;96405.06;5023193;28;20409;-83
2023/11/11 07:37:39;;;;;;;3.03;2.60;;;;;;;4.55;100.00;96396.47;5025907;28;20443;-81
2023/11/11 07:40:08;;;;;;;2.93;2.57;;;;;;;4.55;100.00;96401.72;5027012;28;20431;-84
2023/11/11 07:42:34;;;;;;;3.67;2.55;;;;;;;4.58;100.00;96399.44;5038397;28;20429;-82
2023/11/11 07:45:03;;;;;;;3.90;3.00;;;;;;;4.52;100.00;96407.41;5037780;28;20403;-84
2023/11/11 07:47:30;;;;;;;3.58;2.70;;;;;;;4.54;100.00;96400.94;5043156;28;20768;-83
2023/11/11 07:49:58;;;;;;;4.00;2.80;;;;;;;4.54;100.00;96400.13;5034543;28;20430;-84
2023/11/11 07:52:25;;;;;;;4.47;3.08;;;;;;;4.54;100.00;96402.75;5021692;28;20406;-82
2023/11/11 07:54:52;;;;;;;6.53;3.30;;;;;;;4.47;100.00;96402.91;5025670;28;20433;-82
2023/11/11 07:57:18;;;;;;;4.18;3.17;;;;;;;4.54;100.00;96405.38;5041146;28;20483;-84
2023/11/11 07:59:45;;;;;;;5.40;3.20;;;;;;;4.57;100.00;96403.09;5035967;28;20414;-82
2023/11/11 08:02:12;;;;;;;9.82;3.80;;;;;;;4.61;100.00;96417.28;5033860;28;20397;-83
2023/11/11 08:04:38;;;;;;;5.20;3.67;;;;;;;4.59;100.00;96414.09;5034885;28;20439;-84
2023/11/11 08:07:06;;;;;;;6.18;3.40;;;;;;;4.66;100.00;96422.59;5029489;28;20475;-82
2023/11/11 08:09:32;;;;;;;6.18;3.50;;;;;;;4.71;100.00;96415.88;5030591;28;20893;-80
2023/11/11 08:11:59;;;;;;;4.82;3.03;;;;;;;4.81;100.00;96414.19;5028530;28;20407;-82
2023/11/11 08:14:25;;;;;;;3.50;2.72;;;;;;;4.89;100.00;96418.25;5036502;28;20455;-83
2023/11/11 08:16:52;;;;;;;4.00;2.97;;;;;;;4.90;100.00;96422.47;5027877;28;20689;-81
2023/11/11 08:19:18;;;;;;;4.25;2.88;;;;;;;4.98;100.00;96424.69;5029005;28;20400;-81
2023/11/11 08:21:44;;;;;;;4.70;2.97;;;;;;;5.08;100.00;96430.09;5025158;28;20420;-80
2023/11/11 08:24:12;;;;;;;4.63;2.92;;;;;;;5.10;100.00;96435.91;5035487;28;20473;-81
2023/11/11 08:26:38;;;;;;;4.70;3.08;;;;;;;5.09;100.00;96442.19;5033381;28;20773;-80
2023/11/11 08:29:04;;;;;;;6.18;3.38;;;;;;;5.12;100.00;96448.75;5037829;28;20398;-81
2023/11/11 08:31:30;;;;;;;7.93;3.80;;;;;;;5.10;100.00;96450.84;5041181;28;20399;-80
2023/11/11 08:33:57;;;;;;;5.20;3.20;;;;;;;5.12;100.00;96456.63;5034663;28;20442;-81
2023/11/11 08:36:24;;;;;;;8.13;3.87;;;;;;;5.13;100.00;96452.97;5030972;28;20407;-83
2023/11/11 08:38:50;;;;;;;4.30;2.85;;;;;;;5.15;100.00;96462.22;5039446;28;20403;-82
2023/11/11 08:41:18;;;;;;;8.27;4.28;;;;;;;5.00;100.00;96469.84;5042759;28;20765;-81
2023/11/11 08:43:44;;;;;;;4.88;3.42;;;;;;;4.98;100.00;96470.06;5024920;28;20421;-82
2023/11/11 08:46:10;;;;;;;7.05;3.50;;;;;;;4.97;100.00;96473.72;5024850;28;20891;-81
2023/11/11 08:48:40;;;;;;;6.70;3.63;;;;;;;4.98;100.00;96477.94;5028051;28;20419;-81
2023/11/11 08:51:06;;;;;;;4.63;3.47;;;;;;;5.04;100.00;96484.84;5033517;28;20399;-82
2023/11/11 08:53:33;;;;;;;4.97;3.50;;;;;;;5.10;100.00;96491.00;5034690;28;20403;-81
2023/11/11 08:55:59;;;;;;;5.22;3.50;;;;;;;5.17;100.00;96488.22;5042448;28;20476;-81
2023/11/11 08:58:27;;;;;;;5.63;3.40;;;;;;;5.24;100.00;96500.13;5039121;28;20392;-82
2023/11/11 09:00:53;;;;;;;12.50;4.20;;;;;;;5.15;100.00;96485.03;5031539;28;20492;-81
2023/11/11 09:03:20;;;;;;;6.00;3.50;;;;;;;5.20;100.00;96499.00;5026936;28;20461;-81
2023/11/11 09:05:46;;;;;;;6.82;3.10;;;;;;;5.24;100.00;96496.72;5042358;28;20392;-82
2023/11/11 09:08:12;;;;;;;6.77;3.53;;;;;;;5.19;100.00;96499.28;5034306;28;20418;-80
2023/11/11 09:10:40;;;;;;;7.00;3.25;;;;;;;5.31;100.00;96494.72;5044716;28;20422;-81
2023/11/11 09:13:10;;;;;;;5.75;3.30;;;;;;;5.38;100.00;96504.03;5047291;28;20445;-81
2023/11/11 09:15:38;;;;;;;6.05;2.95;;;;;;;5.42;100.00;96499.88;5044677;28;20427;-81
2023/11/11 09:18:04;;;;;;;4.43;3.25;;;;;;;5.50;100.00;96509.19;5031295;28;20399;-80
2023/11/11 09:20:32;;;;;;;6.13;3.30;;;;;;;5.53;100.00;96506.09;5032095;28;20865;-81
2023/11/11 09:22:59;;;;;;;4.13;3.08;;;;;;;5.64;100.00;96507.03;5034877;28;20513;-82
2023/11/11 09:25:25;;;;;;;4.45;2.90;;;;;;;6.07;100.00;96507.13;5026129;28;20698;-80
2023/11/11 09:27:52;;;;;;;2.60;2.40;;;;;;;6.40;100.00;96514.06;5022215;28;20450;-80
2023/11/11 09:30:22;;;;;;;3.60;2.40;;;;;;;6.51;100.00;96512.38;5039602;28;20414;-81
2023/11/11 09:32:53;;;;;;;3.42;2.58;;;;;;;6.50;100.00;96523.91;5038130;28;20423;-81
2023/11/11 09:35:20;;;;;;;3.50;2.60;;;;;;;6.73;100.00;96518.38;5025328;28;20867;-83
2023/11/11 09:37:48;;;;;;;2.10;1.90;;;;;;;7.39;100.00;96518.97;5030944;28;20401;-83
2023/11/11 09:40:16;;;;;;;1.70;1.60;;;;;;;8.52;100.00;96517.53;5029547;28;20403;-78
2023/11/11 09:42:42;;;;;;;2.45;1.58;;;;;;;9.41;100.00;96520.84;5016165;28;20861;-82
2023/11/11 09:45:10;;;;;;;2.70;1.50;;;;;;;10.02;100.00;96514.44;5030135;28;20407;-85
2023/11/11 09:47:42;;;;;;;1.50;1.40;;;;;;;10.55;100.00;96516.66;5008266;28;20951;-81
2023/11/11 09:50:12;;;;;;;1.75;1.13;;;;;;;10.75;100.00;96521.88;5028319;28;20414;-80
2023/11/11 09:52:39;;;;;;;3.33;1.35;;;;;;;10.98;100.00;96520.41;5025433;28;20407;-78
2023/11/11 09:55:08;;;;;;;2.30;0.98;;;;;;;11.68;100.00;96528.91;5027008;28;20490;-78
2023/11/11 09:57:35;;;;;;;3.37;1.87;;;;;;;12.32;100.00;96521.41;5032066;28;20480;-80
2023/11/11 10:00:02;;;;;;;1.20;1.00;;;;;;;12.75;100.00;96508.13;5026135;28;20463;-79
2023/11/11 10:02:28;;;;;;;2.03;1.00;;;;;;;13.28;100.00;96499.97;5020177;28;20404;-80
2023/11/11 10:04:55;;;;;;;2.22;1.10;;;;;;;12.94;100.00;96503.59;5035343;28;20404;-80
2023/11/11 10:07:22;;;;;;;3.20;1.10;;;;;;;11.93;100.00;96486.28;5022395;28;20789;-79
2023/11/11 10:09:49;;;;;;;2.67;1.20;;;;;;;10.72;100.00;96488.78;5021014;28;20407;-81
2023/11/11 10:12:15;;;;;;;2.65;1.40;;;;;;;9.69;100.00;96493.91;5018808;28;20424;-80
2023/11/11 10:14:42;;;;;;;2.65;1.52;;;;;;;8.76;100.00;96501.25;5020629;28;20484;-83
2023/11/11 10:17:11;;;;;;;2.75;1.50;;;;;;;8.20;100.00;96508.13;5018557;28;20393;-81
2023/11/11 10:19:40;;;;;;;4.38;1.70;;;;;;;7.71;100.00;96516.31;5036419;28;20474;-81
2023/11/11 10:22:08;;;;;;;3.73;2.00;;;;;;;7.37;100.00;96518.44;5038059;28;20391;-81
2023/11/11 10:24:35;;;;;;;3.17;2.10;;;;;;;7.14;100.00;96531.94;5037337;28;20419;-78
2023/11/11 10:27:03;;;;;;;1.73;1.63;;;;;;;7.04;100.00;96535.28;5037249;28;20403;-82
2023/11/11 10:29:35;;;;;;;2.22;2.00;;;;;;;7.07;100.00;96532.13;5035838;28;20399;-82
2023/11/11 10:32:07;;;;;;;2.13;1.90;;;;;;;7.14;100.00;96529.31;5036975;28;20391;-82
2023/11/11 10:34:34;;;;;;;2.30;1.70;;;;;;;7.20;100.00;96537.00;5037056;28;20490;-83
2023/11/11 10:37:02;;;;;;;2.28;1.70;;;;;;;7.27;100.00;96545.50;5036861;28;20398;-81
2023/11/11 10:39:29;;;;;;;3.07;1.97;;;;;;;7.36;100.00;96540.56;5037176;28;20754;-80
2023/11/11 10:41:57;;;;;;;5.33;2.33;;;;;;;7.62;100.00;96544.16;5036661;28;20555;-80
2023/11/11 10:44:23;;;;;;;2.88;2.00;;;;;;;8.71;100.00;96536.34;5036069;28;20426;-79
2023/11/11 10:46:49;;;;;;;1.98;1.33;;;;;;;9.85;100.00;96536.97;5027034;28;20508;-79
2023/11/11 10:49:15;;;;;;;1.77;1.40;;;;;;;10.85;100.00;96537.69;5034204;28;20407;-81
2023/11/11 10:51:42;;;;;;;2.28;1.50;;;;;;;11.43;100.00;96527.25;5042128;28;20391;-82
2023/11/11 10:54:10;;;;;;;2.45;1.40;;;;;;;11.39;100.00;96507.69;5040723;28;20882;-79
2023/11/11 10:56:37;;;;;;;1.87;1.20;;;;;;;11.00;100.00;96502.38;5041450;28;20515;-82
2023/11/11 10:59:05;;;;;;;1.50;1.10;;;;;;;10.43;100.00;96496.63;5041694;28;20423;-82
2023/11/11 11:01:35;;;;;;;2.00;1.50;;;;;;;9.77;100.00;96511.06;5041968;28;20726;-81
2023/11/11 11:04:03;;;;;;;1.80;1.40;;;;;;;9.14;100.00;96515.84;5042047;28;20419;-80
2023/11/11 11:06:36;;;;;;;2.58;1.50;;;;;;;8.73;100.00;96517.59;5041881;28;20434;-81
2023/11/11 11:09:14;;;;;;;2.70;1.60;;;;;;;8.41;100.00;96523.03;5030383;28;20427;-81
2023/11/11 11:11:56;;;;;;;1.70;1.60;;;;;;;8.33;100.00;96532.25;5021700;28;20389;-81
2023/11/11 11:14:40;;;;;;;1.50;1.40;;;;;;;9.12;100.00;96531.13;5022788;28;20411;-82
2023/11/11 11:17:08;;;;;;;1.20;1.10;;;;;;;10.42;100.00;96542.66;5021567;28;20400;-79
2023/11/11 11:19:49;;;;;;;2.20;1.17;;;;;;;11.41;100.00;96519.59;5025445;28;20422;-82
2023/11/11 11:22:15;;;;;;;4.75;1.42;;;;;;;11.83;100.00;96483.72;5039522;28;20747;-80
2023/11/11 11:24:42;;;;;;;2.85;1.00;;;;;;;12.22;100.00;96492.31;5040057;28;20415;-80
2023/11/11 11:27:09;;;;;;;1.95;1.00;;;;;;;12.71;100.00;96485.84;5041207;28;20410;-80
2023/11/11 11:29:36;;;;;;;3.80;1.17;;;;;;;12.95;100.00;96491.91;5040568;28;20407;-81
2023/11/11 11:32:06;;;;;;;1.60;1.00;;;;;;;13.21;100.00;96481.72;5041543;28;20395;-81